Kezdőlap
METAR-TAF:

METAR-TAF

Repülőterek :

Dakar, Szenegál

földrajzi szélesség: 14-44N, földrajzi hosszúság: 017-30W, magasság: 27 m

Jelenlegi meteorológiai megfigyelések

A jelentés 1 órával és 56 perccel ezelõtt készült, 00:00 UTC
Észak-északkeleti szél 8 kt
Hőmérséklet 19°C
Páratartalom 78%
Légköri nyomás 1013 hPa
Látótávolság: 4000 m
kiterjedt por

METAR: GOOY 230000Z 02008KT 4000 DU NSC 19/15 Q1013

Idő: 01:56 (01:56 UTC)

Előrejelzés

A jelentés 2 órával és 26 perccel ezelõtt készült, 23:30 UTC
Az előrejelzés 23-én 00 óra UTC és 23-én 06 óra UTC között érvényes
Észak-északkeleti szél 12 kt
Látótávolság: 3000 m
kiterjedt por

TAF: GOOY 222330Z 2300/2306 03012KT 3000 DU NSC

Meteorológiai megfigyelések és előrejelzések több, mint 4000 repülőtéren (METAR és TAF jelentéseket).

A térképen piros és sárga pontok jelzik az elérhető meteorológiai állomásokat.

Mozgassa az egeret a pont fölött, hogy megjelenjen az állomás neve.

Azután kattintson az időjárási megfigyelések és előrejelzések megtekintéséhez.

A térkép megváltoztatása: kattintson a fekete keresztel jelölt zöld gombra ráközelítéshez, a vonallal jelölt zöld gombra távolításhoz, vagy a zöld nyilakra a szomszédos térképek eléréséhez.


METAR-TAF: